Time;durP1;ratioP1;P1;durP2;ratioP2;P2;SDS_P1;SDS_P2;PMS_P1;PMS_P2;Temp;Humidity;BMP_temperature;BMP_pressure;BME280_temperature;BME280_humidity;BME280_pressure;Samples;Min_cycle;Max_cycle;Signal;HPM_P1;HPM_P2
2022/09/15 00:00:19;;;;;;;31.45;15.40;;;20.20;99.90;;;;;;5036570;28;20029;-67
2022/09/15 00:02:45;;;;;;;23.85;13.00;;;20.20;99.90;;;;;;5049089;28;20040;-66
2022/09/15 00:05:12;;;;;;;21.40;11.43;;;20.20;99.90;;;;;;5050314;28;20116;-66
2022/09/15 00:07:37;;;;;;;21.88;12.13;;;20.30;99.90;;;;;;5048140;28;20048;-66
2022/09/15 00:10:05;;;;;;;20.17;11.27;;;20.20;99.90;;;;;;5037864;28;20029;-66
2022/09/15 00:12:31;;;;;;;18.38;10.75;;;20.20;99.90;;;;;;5043212;28;20045;-67
2022/09/15 00:14:57;;;;;;;21.38;10.55;;;20.20;99.90;;;;;;5033855;28;20018;-64
2022/09/15 00:17:23;;;;;;;20.48;10.50;;;20.20;99.90;;;;;;5033687;28;20040;-66
2022/09/15 00:19:49;;;;;;;18.92;11.63;;;20.20;99.90;;;;;;5038167;28;20025;-66
2022/09/15 00:22:15;;;;;;;20.35;9.85;;;20.30;99.90;;;;;;5039520;28;20563;-67
2022/09/15 00:24:41;;;;;;;22.80;10.90;;;20.30;99.90;;;;;;5037445;28;20022;-67
2022/09/15 00:27:07;;;;;;;21.25;11.52;;;20.30;99.90;;;;;;5041374;28;20025;-65
2022/09/15 00:29:34;;;;;;;17.90;9.10;;;20.20;99.90;;;;;;5048849;28;20025;-66
2022/09/15 00:32:00;;;;;;;19.45;10.50;;;20.30;99.90;;;;;;5043183;28;20037;-66
2022/09/15 00:34:26;;;;;;;17.48;9.75;;;20.30;99.90;;;;;;5033415;28;20091;-67
2022/09/15 00:36:52;;;;;;;20.95;9.27;;;20.20;99.90;;;;;;5032345;28;20539;-67
2022/09/15 00:39:18;;;;;;;12.05;7.90;;;20.20;99.90;;;;;;5033935;28;20464;-65
2022/09/15 00:41:44;;;;;;;14.45;7.80;;;20.20;99.90;;;;;;5039239;28;20388;-63
2022/09/15 00:44:15;;;;;;;16.33;7.80;;;20.30;99.90;;;;;;5033322;28;20100;-64
2022/09/15 00:46:43;;;;;;;15.02;8.20;;;20.30;99.90;;;;;;5038529;28;20546;-63
2022/09/15 00:49:16;;;;;;;13.75;7.63;;;20.30;99.90;;;;;;5050180;28;20045;-63
2022/09/15 00:52:01;;;;;;;14.68;8.07;;;20.40;99.90;;;;;;5042253;28;20091;-62
2022/09/15 00:54:42;;;;;;;17.13;7.53;;;20.40;99.90;;;;;;5033389;28;20021;-64
2022/09/15 00:57:27;;;;;;;14.13;7.43;;;20.30;99.90;;;;;;5037933;28;20091;-66
2022/09/15 00:59:55;;;;;;;14.60;7.57;;;20.30;99.90;;;;;;5037658;28;20032;-67
2022/09/15 01:02:27;;;;;;;14.75;7.90;;;20.30;99.90;;;;;;5041955;28;20030;-67
2022/09/15 01:04:54;;;;;;;11.88;6.88;;;20.30;99.90;;;;;;5033129;28;20030;-67
2022/09/15 01:07:31;;;;;;;11.48;7.05;;;20.30;99.90;;;;;;5042333;28;20053;-67
2022/09/15 01:10:00;;;;;;;12.45;6.43;;;20.30;99.90;;;;;;5058045;28;20029;-67
2022/09/15 01:12:26;;;;;;;10.15;6.03;;;20.40;99.90;;;;;;5049717;28;20034;-66
2022/09/15 01:14:52;;;;;;;11.75;6.35;;;20.40;99.90;;;;;;5046695;28;20049;-66
2022/09/15 01:17:40;;;;;;;14.73;6.47;;;20.50;99.90;;;;;;5032860;28;20490;-66
2022/09/15 01:20:21;;;;;;;11.70;5.90;;;20.50;99.90;;;;;;5032673;28;20013;-66
2022/09/15 01:23:19;;;;;;;14.07;6.47;;;20.50;99.90;;;;;;5032826;28;20044;-67
2022/09/15 01:26:09;;;;;;;9.80;5.22;;;20.60;99.90;;;;;;5032983;28;20372;-67
2022/09/15 01:29:28;;;;;;;10.52;5.05;;;20.50;99.90;;;;;;5032478;28;20029;-66
2022/09/15 01:35:32;;;;;;;11.10;4.85;;;20.70;99.90;;;;;;4952246;29;20042;-67
2022/09/15 01:38:20;;;;;;;11.27;4.85;;;20.70;99.90;;;;;;4952061;29;20047;-66
2022/09/15 01:40:57;;;;;;;10.98;5.00;;;20.70;99.90;;;;;;4952183;29;20137;-67
2022/09/15 01:43:25;;;;;;;7.45;4.43;;;20.60;99.90;;;;;;4951907;29;20050;-67
2022/09/15 01:45:52;;;;;;;11.02;4.53;;;20.60;99.90;;;;;;4952149;28;20078;-66
2022/09/15 01:48:22;;;;;;;10.90;4.57;;;20.70;99.90;;;;;;4951704;29;20105;-66
2022/09/15 01:50:53;;;;;;;10.70;4.95;;;20.70;99.90;;;;;;4951904;29;20063;-66
2022/09/15 01:53:21;;;;;;;8.43;5.00;;;20.80;99.90;;;;;;4952236;29;20566;-65
2022/09/15 01:56:01;;;;;;;11.77;5.00;;;20.80;99.90;;;;;;4952007;29;20019;-66
2022/09/15 01:58:27;;;;;;;20.60;6.15;;;20.80;99.90;;;;;;4952050;29;20051;-66
2022/09/15 02:01:05;;;;;;;12.27;5.82;;;20.80;99.90;;;;;;4951696;29;20430;-65
2022/09/15 02:03:43;;;;;;;9.80;5.35;;;20.90;99.90;;;;;;4952058;29;20122;-66
2022/09/15 02:06:36;;;;;;;12.13;6.90;;;20.90;99.90;;;;;;4980131;28;20394;-66
2022/09/15 02:09:31;;;;;;;12.82;5.95;;;20.90;99.90;;;;;;4980499;28;20046;-66
2022/09/15 02:12:18;;;;;;;9.35;4.50;;;20.90;99.90;;;;;;5032571;28;20080;-66
2022/09/15 02:15:09;;;;;;;4.15;2.60;;;20.90;99.90;;;;;;5032167;28;20041;-66
2022/09/15 02:17:41;;;;;;;6.80;2.83;;;21.00;99.90;;;;;;5031443;28;20120;-66
2022/09/15 02:20:16;;;;;;;6.15;2.80;;;21.10;99.90;;;;;;5031517;28;20068;-66
2022/09/15 02:22:54;;;;;;;7.07;2.55;;;21.20;99.90;;;;;;5041172;28;20072;-65
2022/09/15 02:25:39;;;;;;;3.95;2.20;;;21.30;99.90;;;;;;5033499;28;20029;-65
2022/09/15 02:28:08;;;;;;;7.18;2.80;;;21.40;99.90;;;;;;5031191;28;20071;-66
2022/09/15 02:30:41;;;;;;;4.90;2.28;;;21.40;99.90;;;;;;5031329;28;20017;-66
2022/09/15 02:33:13;;;;;;;5.40;2.30;;;21.50;99.90;;;;;;5031402;28;20029;-66
2022/09/15 02:35:40;;;;;;;8.05;2.33;;;21.50;99.90;;;;;;5031214;28;20464;-66
2022/09/15 02:38:08;;;;;;;5.60;2.33;;;21.50;99.90;;;;;;5031520;28;20117;-66
2022/09/15 02:40:38;;;;;;;4.45;2.67;;;21.60;99.90;;;;;;5031117;28;20021;-66
2022/09/15 02:43:08;;;;;;;3.75;2.10;;;21.60;99.90;;;;;;5031074;28;20061;-66
2022/09/15 02:45:34;;;;;;;7.50;2.42;;;21.60;99.90;;;;;;5030939;28;20053;-66
2022/09/15 02:47:59;;;;;;;6.47;2.45;;;21.50;99.90;;;;;;5031321;28;20480;-66
2022/09/15 02:50:26;;;;;;;7.43;2.55;;;21.50;99.90;;;;;;5031373;28;20033;-65
2022/09/15 02:52:53;;;;;;;3.97;2.40;;;21.50;99.90;;;;;;5031033;28;20056;-66
2022/09/15 02:55:19;;;;;;;7.93;2.20;;;21.50;99.90;;;;;;5031536;28;20132;-66
2022/09/15 02:57:44;;;;;;;9.63;3.08;;;21.50;99.90;;;;;;5030740;28;20544;-65
2022/09/15 03:00:15;;;;;;;6.78;2.88;;;21.60;99.90;;;;;;5033709;28;20029;-66
2022/09/15 03:02:44;;;;;;;5.45;2.13;;;21.60;99.90;;;;;;5034258;28;20029;-64
2022/09/15 03:05:11;;;;;;;4.28;2.25;;;21.60;99.90;;;;;;5034711;28;20066;-66
2022/09/15 03:07:37;;;;;;;4.93;2.25;;;21.60;99.90;;;;;;5046330;28;20098;-66
2022/09/15 03:10:08;;;;;;;10.02;2.92;;;21.60;99.90;;;;;;5036354;28;20026;-67
2022/09/15 03:12:38;;;;;;;7.05;2.25;;;21.50;99.90;;;;;;5034737;28;20025;-67
2022/09/15 03:15:06;;;;;;;6.90;2.50;;;21.50;99.90;;;;;;5034951;28;20075;-65
2022/09/15 03:17:36;;;;;;;8.23;3.03;;;21.50;99.90;;;;;;5048498;28;20047;-67
2022/09/15 03:20:04;;;;;;;5.22;2.85;;;21.50;99.90;;;;;;5034346;28;20124;-67
2022/09/15 03:22:31;;;;;;;8.55;3.75;;;21.50;99.90;;;;;;5039654;28;20029;-66
2022/09/15 03:24:56;;;;;;;8.18;4.55;;;21.50;99.90;;;;;;5043044;28;20068;-66
2022/09/15 03:27:22;;;;;;;6.65;3.92;;;21.40;99.90;;;;;;5034756;28;20405;-66
2022/09/15 03:29:48;;;;;;;4.95;2.72;;;21.40;99.90;;;;;;5034415;28;20044;-65
2022/09/15 03:32:14;;;;;;;8.00;3.33;;;21.30;99.90;;;;;;5033965;28;20436;-66
2022/09/15 03:34:40;;;;;;;9.43;3.63;;;21.30;99.90;;;;;;5034624;28;20426;-66
2022/09/15 03:37:06;;;;;;;6.40;2.60;;;21.30;99.90;;;;;;5034145;28;20447;-64
2022/09/15 03:39:32;;;;;;;8.65;3.50;;;21.30;99.90;;;;;;5034302;28;20391;-66
2022/09/15 03:41:57;;;;;;;7.90;3.17;;;21.20;99.90;;;;;;5034303;28;20095;-67
2022/09/15 03:44:23;;;;;;;10.05;3.65;;;21.20;99.90;;;;;;5034048;28;20017;-67
2022/09/15 03:46:50;;;;;;;9.30;3.40;;;21.20;99.90;;;;;;5034160;28;20489;-66
2022/09/15 03:49:16;;;;;;;12.55;3.72;;;21.20;99.90;;;;;;5033969;28;20022;-66
2022/09/15 03:51:42;;;;;;;8.38;2.95;;;21.10;99.90;;;;;;5033680;28;20056;-66
2022/09/15 03:54:08;;;;;;;7.68;3.13;;;21.10;99.90;;;;;;5033938;28;20110;-67
2022/09/15 03:56:34;;;;;;;7.15;3.33;;;21.00;99.90;;;;;;5051639;28;20093;-66
2022/09/15 03:59:01;;;;;;;10.07;3.30;;;21.00;99.90;;;;;;5042465;28;20029;-67
2022/09/15 04:01:28;;;;;;;8.38;3.50;;;21.00;99.90;;;;;;5037097;28;20032;-65
2022/09/15 04:03:55;;;;;;;8.10;3.15;;;20.90;99.90;;;;;;5052889;28;20041;-66
2022/09/15 04:06:22;;;;;;;12.60;4.00;;;20.90;99.90;;;;;;5052550;28;20376;-67
2022/09/15 04:08:49;;;;;;;12.77;5.60;;;20.80;99.90;;;;;;5052768;28;20037;-66
2022/09/15 04:11:16;;;;;;;11.85;6.10;;;20.60;99.90;;;;;;5045349;28;20053;-67
2022/09/15 04:13:42;;;;;;;21.00;6.90;;;20.50;99.90;;;;;;5033301;28;20431;-66
2022/09/15 04:16:11;;;;;;;15.15;7.05;;;20.50;99.90;;;;;;5041885;28;20368;-66
2022/09/15 04:18:37;;;;;;;14.20;6.93;;;20.40;99.90;;;;;;5037246;28;20474;-65
2022/09/15 04:21:06;;;;;;;14.88;6.65;;;20.50;99.90;;;;;;5052897;28;20471;-66
2022/09/15 04:23:33;;;;;;;11.05;5.45;;;20.50;99.90;;;;;;5039293;28;20033;-66
2022/09/15 04:26:04;;;;;;;13.45;5.85;;;20.60;99.90;;;;;;5039139;28;20029;-66
2022/09/15 04:28:36;;;;;;;12.57;5.22;;;20.70;99.90;;;;;;5040452;28;20229;-67
2022/09/15 04:31:10;;;;;;;17.42;5.40;;;20.80;99.90;;;;;;5032398;28;20571;-66
2022/09/15 04:33:37;;;;;;;24.10;5.13;;;20.80;99.90;;;;;;5043932;28;20059;-68
2022/09/15 04:36:08;;;;;;;8.77;3.65;;;20.90;99.90;;;;;;5033847;28;20021;-68
2022/09/15 04:38:34;;;;;;;8.05;3.80;;;20.90;99.90;;;;;;5031782;28;20128;-68
2022/09/15 04:41:00;;;;;;;7.88;3.50;;;20.90;99.90;;;;;;5032023;28;20013;-68
2022/09/15 04:43:27;;;;;;;10.32;4.53;;;20.90;99.90;;;;;;5032669;28;20036;-68
2022/09/15 04:45:53;;;;;;;9.40;3.80;;;20.90;99.90;;;;;;5032477;28;20045;-67
2022/09/15 04:48:20;;;;;;;12.27;4.53;;;21.00;99.90;;;;;;5031929;28;20545;-68
2022/09/15 04:50:46;;;;;;;12.15;4.45;;;21.00;99.90;;;;;;5045983;28;20108;-67
2022/09/15 04:53:11;;;;;;;10.02;4.15;;;21.10;99.90;;;;;;5031778;28;20076;-68
2022/09/15 04:55:38;;;;;;;8.05;4.05;;;21.10;99.90;;;;;;5032496;28;20033;-68
2022/09/15 04:58:04;;;;;;;11.98;3.53;;;21.20;99.90;;;;;;5036157;28;20475;-68
2022/09/15 05:00:33;;;;;;;8.70;3.53;;;21.20;99.90;;;;;;5042012;28;20018;-66
2022/09/15 05:02:59;;;;;;;7.40;3.83;;;21.20;99.90;;;;;;5031467;28;20091;-67
2022/09/15 05:05:26;;;;;;;11.18;4.38;;;21.20;99.90;;;;;;5032261;28;20056;-68
2022/09/15 05:07:52;;;;;;;14.57;4.47;;;21.00;99.90;;;;;;5047803;28;20096;-67
2022/09/15 05:10:18;;;;;;;9.52;4.00;;;20.90;99.90;;;;;;5055072;28;20053;-68
2022/09/15 05:12:45;;;;;;;11.13;3.70;;;20.80;99.90;;;;;;5028947;28;20100;-68
2022/09/15 05:15:11;;;;;;;9.55;3.78;;;20.80;99.90;;;;;;5028835;28;20073;-68
2022/09/15 05:17:37;;;;;;;8.82;3.72;;;20.80;99.90;;;;;;5030478;28;20030;-67
2022/09/15 05:20:04;;;;;;;12.35;4.10;;;20.80;99.90;;;;;;5030579;28;20464;-68
2022/09/15 05:22:30;;;;;;;8.85;3.20;;;20.80;99.90;;;;;;5031192;28;20139;-68
2022/09/15 05:24:56;;;;;;;22.90;4.53;;;20.80;99.90;;;;;;5031921;28;20029;-68
2022/09/15 05:27:22;;;;;;;10.30;3.25;;;20.90;99.90;;;;;;5031354;28;20025;-68
2022/09/15 05:29:48;;;;;;;12.75;3.60;;;20.90;99.90;;;;;;5031627;28;20039;-68
2022/09/15 05:32:14;;;;;;;10.43;3.70;;;21.00;99.90;;;;;;5031085;28;20095;-68
2022/09/15 05:34:40;;;;;;;7.70;3.33;;;21.10;99.90;;;;;;5031030;28;20104;-67
2022/09/15 05:37:05;;;;;;;9.95;3.83;;;21.10;99.90;;;;;;5031565;28;20411;-63
2022/09/15 05:39:31;;;;;;;9.27;3.72;;;21.10;99.90;;;;;;5031469;28;20053;-68
2022/09/15 05:41:58;;;;;;;10.30;3.90;;;21.10;99.90;;;;;;5031193;28;20033;-69
2022/09/15 05:44:24;;;;;;;12.10;3.70;;;21.10;99.90;;;;;;5040060;28;20104;-68
2022/09/15 05:46:51;;;;;;;8.90;3.95;;;21.20;99.90;;;;;;5035904;28;20108;-68
2022/09/15 05:49:16;;;;;;;15.63;7.72;;;21.30;99.90;;;;;;5038335;28;20467;-67
2022/09/15 05:51:42;;;;;;;10.60;5.80;;;21.40;99.90;;;;;;5038120;28;20109;-68
2022/09/15 05:54:08;;;;;;;11.45;4.32;;;21.40;99.90;;;;;;5030895;28;20104;-67
2022/09/15 05:56:34;;;;;;;15.27;4.63;;;21.40;99.90;;;;;;5031277;28;20108;-65
2022/09/15 05:59:00;;;;;;;11.80;4.53;;;21.50;99.90;;;;;;5031083;28;20025;-68
2022/09/15 06:01:27;;;;;;;8.18;4.38;;;21.50;99.90;;;;;;5031154;28;20033;-68
2022/09/15 06:03:55;;;;;;;10.07;4.68;;;21.60;99.90;;;;;;5030815;28;20026;-68
2022/09/15 06:06:22;;;;;;;10.43;4.20;;;21.70;99.90;;;;;;5032776;28;20033;-68
2022/09/15 06:08:54;;;;;;;10.65;5.05;;;21.80;99.90;;;;;;5043079;28;20227;-68
2022/09/15 06:11:22;;;;;;;13.82;4.90;;;22.00;99.90;;;;;;5025711;28;20033;-68
2022/09/15 06:13:48;;;;;;;17.27;4.90;;;22.10;99.90;;;;;;5029374;28;20029;-68
2022/09/15 06:16:22;;;;;;;24.88;5.00;;;22.10;99.90;;;;;;5030826;28;20499;-68
2022/09/15 06:18:50;;;;;;;17.42;5.80;;;22.20;99.90;;;;;;5031102;28;20449;-67
2022/09/15 06:21:21;;;;;;;15.02;4.45;;;22.30;99.90;;;;;;5031548;28;20388;-68
2022/09/15 06:23:52;;;;;;;20.77;5.37;;;22.40;99.90;;;;;;5030854;28;20026;-68
2022/09/15 06:26:19;;;;;;;12.98;5.97;;;22.50;99.90;;;;;;5031010;28;20048;-68
2022/09/15 06:28:50;;;;;;;15.40;7.10;;;22.60;99.90;;;;;;5030917;28;20409;-68
2022/09/15 06:31:17;;;;;;;17.15;9.35;;;22.80;99.90;;;;;;5028182;28;20053;-68
2022/09/15 06:33:45;;;;;;;19.15;8.77;;;22.80;99.90;;;;;;5029094;28;20037;-67
2022/09/15 06:36:12;;;;;;;23.33;8.75;;;23.00;99.90;;;;;;5042958;28;20086;-64
2022/09/15 06:38:39;;;;;;;19.05;8.10;;;23.10;99.90;;;;;;5038606;28;20113;-65
2022/09/15 06:41:05;;;;;;;15.40;7.88;;;23.40;99.90;;;;;;5034696;28;20022;-64
2022/09/15 06:43:32;;;;;;;11.30;5.38;;;23.60;99.90;;;;;;5034247;28;20518;-65
2022/09/15 06:46:10;;;;;;;12.38;4.95;;;23.90;99.90;;;;;;5031570;28;20021;-64
2022/09/15 06:48:37;;;;;;;17.15;7.15;;;24.20;99.90;;;;;;5034251;28;20029;-68
2022/09/15 06:51:05;;;;;;;14.65;5.75;;;24.30;99.90;;;;;;5031725;28;20372;-64
2022/09/15 06:53:32;;;;;;;14.50;5.13;;;24.50;99.90;;;;;;5031977;28;20021;-64
2022/09/15 06:56:05;;;;;;;13.25;5.15;;;24.60;99.90;;;;;;5033655;28;20075;-64
2022/09/15 06:58:34;;;;;;;10.50;4.80;;;24.70;99.90;;;;;;5034098;28;20025;-67
2022/09/15 07:01:02;;;;;;;10.20;4.03;;;24.70;99.90;;;;;;5034000;28;20417;-65
2022/09/15 07:03:29;;;;;;;10.13;3.30;;;24.80;99.90;;;;;;5033932;28;20056;-67
2022/09/15 07:05:54;;;;;;;7.85;3.35;;;24.80;99.80;;;;;;5033902;28;20021;-68
2022/09/15 07:08:20;;;;;;;9.30;3.00;;;24.90;99.90;;;;;;5047444;28;20399;-67
2022/09/15 07:10:46;;;;;;;8.02;3.75;;;25.00;99.90;;;;;;5033363;28;20025;-68
2022/09/15 07:13:12;;;;;;;7.25;3.45;;;25.00;99.70;;;;;;5033550;28;20029;-67
2022/09/15 07:15:38;;;;;;;12.15;3.80;;;25.00;99.90;;;;;;5033969;28;20452;-67
2022/09/15 07:18:04;;;;;;;11.77;4.60;;;25.00;99.70;;;;;;5033087;28;20052;-68
2022/09/15 07:20:31;;;;;;;9.07;4.22;;;24.80;99.90;;;;;;5033126;28;20013;-67
2022/09/15 07:22:57;;;;;;;11.40;4.97;;;25.00;99.90;;;;;;5032976;28;20072;-68
2022/09/15 07:25:23;;;;;;;20.85;4.80;;;25.10;99.90;;;;;;5032514;28;20048;-67
2022/09/15 07:27:49;;;;;;;9.55;4.25;;;25.10;99.90;;;;;;5034052;28;20029;-67
2022/09/15 07:30:15;;;;;;;8.63;4.40;;;25.20;99.90;;;;;;5033304;28;20072;-67
2022/09/15 07:32:40;;;;;;;8.98;4.00;;;25.10;99.90;;;;;;5033500;28;20025;-64
2022/09/15 07:35:07;;;;;;;17.33;4.20;;;25.10;99.90;;;;;;5033100;28;20018;-67
2022/09/15 07:37:33;;;;;;;10.77;4.57;;;25.00;99.90;;;;;;5033673;28;20574;-67
2022/09/15 07:39:59;;;;;;;9.40;4.63;;;25.00;99.90;;;;;;5033619;28;20025;-67
2022/09/15 07:42:24;;;;;;;15.90;5.10;;;24.90;99.90;;;;;;5033228;28;20033;-68
2022/09/15 07:44:51;;;;;;;10.27;4.72;;;24.90;99.90;;;;;;5033859;28;20553;-67
2022/09/15 07:47:16;;;;;;;8.82;4.40;;;24.80;99.90;;;;;;5033104;28;20129;-68
2022/09/15 07:49:42;;;;;;;9.85;4.93;;;24.90;99.90;;;;;;5033221;28;20507;-68
2022/09/15 07:52:09;;;;;;;7.28;4.65;;;24.80;99.90;;;;;;5033238;28;20022;-67
2022/09/15 07:54:35;;;;;;;7.97;4.00;;;24.90;99.90;;;;;;5033303;28;20098;-67
2022/09/15 07:57:01;;;;;;;7.93;4.18;;;24.80;99.90;;;;;;5032872;28;20057;-67
2022/09/15 07:59:26;;;;;;;11.30;4.32;;;24.80;99.90;;;;;;5032465;28;20021;-68
2022/09/15 08:01:53;;;;;;;8.98;4.65;;;24.80;99.90;;;;;;5032697;28;20396;-66
2022/09/15 08:04:18;;;;;;;8.48;3.83;;;24.80;99.90;;;;;;5032733;28;20025;-67
2022/09/15 08:06:44;;;;;;;7.43;3.85;;;24.70;99.90;;;;;;5037594;28;20068;-67
2022/09/15 08:09:16;;;;;;;8.60;3.50;;;24.80;99.90;;;;;;5048028;28;20091;-67
2022/09/15 08:11:42;;;;;;;11.95;3.13;;;24.80;99.90;;;;;;5033062;28;20025;-67
2022/09/15 08:14:08;;;;;;;10.65;3.03;;;24.80;99.90;;;;;;5032915;28;20078;-68
2022/09/15 08:16:34;;;;;;;7.78;3.42;;;24.70;99.90;;;;;;5032606;28;20026;-67
2022/09/15 08:19:00;;;;;;;4.40;2.72;;;24.70;99.90;;;;;;5033224;28;20037;-67
2022/09/15 08:21:27;;;;;;;6.00;3.70;;;24.60;99.90;;;;;;5033181;28;20040;-67
2022/09/15 08:23:57;;;;;;;6.80;2.88;;;24.60;99.90;;;;;;5032910;28;20029;-67
2022/09/15 08:26:24;;;;;;;9.30;2.88;;;24.60;99.90;;;;;;5032924;28;20026;-68
2022/09/15 08:28:50;;;;;;;7.35;3.08;;;24.50;99.90;;;;;;5046838;28;20021;-67
2022/09/15 08:31:17;;;;;;;7.10;3.47;;;24.50;99.90;;;;;;5032912;28;20471;-67
2022/09/15 08:33:50;;;;;;;10.82;3.47;;;24.40;99.90;;;;;;5032266;28;20036;-67
2022/09/15 08:36:17;;;;;;;11.45;4.20;;;24.40;99.90;;;;;;5032699;28;20021;-67
2022/09/15 08:38:44;;;;;;;15.82;4.88;;;24.20;99.90;;;;;;5032748;28;20461;-68
2022/09/15 08:41:18;;;;;;;10.65;3.40;;;24.30;99.90;;;;;;5032888;28;20025;-67
2022/09/15 08:43:56;;;;;;;6.97;3.90;;;24.00;99.90;;;;;;5031899;28;20067;-68
2022/09/15 08:46:30;;;;;;;9.73;3.42;;;23.90;99.90;;;;;;5032419;28;20444;-68
2022/09/15 08:49:14;;;;;;;10.70;3.22;;;23.90;99.90;;;;;;5032566;28;20029;-67
2022/09/15 08:51:47;;;;;;;9.43;3.25;;;23.90;99.90;;;;;;5032441;28;20100;-67
2022/09/15 08:54:21;;;;;;;8.95;3.20;;;24.00;99.90;;;;;;5032820;28;20033;-68
2022/09/15 08:56:47;;;;;;;6.32;3.00;;;24.10;99.90;;;;;;5031946;28;20030;-68
2022/09/15 08:59:18;;;;;;;8.40;3.53;;;24.20;99.90;;;;;;5043406;28;20083;-68
2022/09/15 09:02:04;;;;;;;12.80;3.72;;;24.20;99.90;;;;;;5035182;28;20113;-67
2022/09/15 09:04:30;;;;;;;15.57;3.53;;;24.20;99.90;;;;;;5032989;28;20025;-68
2022/09/15 09:07:26;;;;;;;7.32;3.20;;;24.20;99.90;;;;;;5039081;28;20041;-68
2022/09/15 09:10:14;;;;;;;9.32;3.10;;;24.20;99.90;;;;;;5024421;28;20041;-67
2022/09/15 09:12:52;;;;;;;10.85;3.42;;;24.20;99.70;;;;;;5010518;28;20077;-67
2022/09/15 09:15:47;;;;;;;10.60;3.65;;;24.30;99.90;;;;;;5010312;28;20041;-68
2022/09/15 09:18:33;;;;;;;8.27;3.45;;;24.30;99.90;;;;;;5010130;28;20487;-67
2022/09/15 09:21:02;;;;;;;9.35;3.60;;;24.40;99.90;;;;;;5010607;28;20128;-67
2022/09/15 09:23:32;;;;;;;12.50;4.25;;;24.50;99.90;;;;;;5009872;28;20084;-67
2022/09/15 09:26:00;;;;;;;10.50;4.40;;;24.50;99.90;;;;;;5010514;28;20034;-67
2022/09/15 09:28:29;;;;;;;12.25;5.18;;;24.70;99.50;;;;;;5010090;28;20041;-68
2022/09/15 09:31:06;;;;;;;13.45;4.80;;;24.80;99.90;;;;;;5010724;28;20030;-67
2022/09/15 09:33:47;;;;;;;12.63;4.47;;;25.10;99.90;;;;;;5009670;28;20513;-68
2022/09/15 09:36:12;;;;;;;7.70;3.83;;;25.40;99.90;;;;;;5009716;28;20037;-67
2022/09/15 09:38:44;;;;;;;8.80;4.57;;;25.60;99.90;;;;;;4991722;28;20100;-67
2022/09/15 09:41:24;;;;;;;13.90;6.50;;;25.80;99.70;;;;;;5009629;28;20492;-67
2022/09/15 09:43:53;;;;;;;17.23;8.93;;;26.00;99.40;;;;;;5009947;28;20121;-65
2022/09/15 09:46:19;;;;;;;17.80;8.80;;;26.20;98.40;;;;;;5021063;28;20036;-68
2022/09/15 09:49:02;;;;;;;11.30;6.43;;;26.40;97.90;;;;;;5031916;28;20053;-68
2022/09/15 09:51:51;;;;;;;13.18;4.70;;;26.70;98.20;;;;;;5045367;28;20018;-69
2022/09/15 09:54:20;;;;;;;7.30;3.47;;;27.10;97.60;;;;;;5043082;28;20554;-66
2022/09/15 09:56:48;;;;;;;4.75;2.88;;;27.30;97.30;;;;;;5046506;28;20025;-67
2022/09/15 09:59:35;;;;;;;10.57;3.20;;;27.60;96.60;;;;;;5049434;28;20116;-67
2022/09/15 10:02:10;;;;;;;7.82;3.22;;;27.80;96.50;;;;;;5047052;28;20071;-67
2022/09/15 10:04:48;;;;;;;5.05;2.38;;;28.20;99.90;;;;;;5048824;28;20471;-68
2022/09/15 10:07:24;;;;;;;7.97;2.92;;;28.20;92.90;;;;;;5040727;28;20041;-68
2022/09/15 10:09:52;;;;;;;4.97;2.83;;;28.10;92.70;;;;;;5046282;28;20114;-68
2022/09/15 10:12:39;;;;;;;5.70;2.22;;;28.20;92.60;;;;;;5042173;28;20543;-68
2022/09/15 10:15:19;;;;;;;6.10;2.20;;;28.30;92.40;;;;;;5035419;28;20455;-68
2022/09/15 10:17:47;;;;;;;6.13;2.15;;;28.30;92.80;;;;;;5053568;28;20399;-68
2022/09/15 10:20:34;;;;;;;3.33;2.05;;;28.40;93.20;;;;;;5051082;28;20100;-67
2022/09/15 10:23:22;;;;;;;3.10;1.90;;;28.50;91.90;;;;;;5042891;28;20045;-67
2022/09/15 10:25:54;;;;;;;11.50;2.78;;;28.40;91.60;;;;;;5035559;28;20026;-68
2022/09/15 10:28:23;;;;;;;9.00;2.80;;;28.40;91.90;;;;;;5042629;28;20079;-67
2022/09/15 10:31:03;;;;;;;5.60;1.92;;;28.60;93.20;;;;;;5054375;28;20051;-68
2022/09/15 10:33:35;;;;;;;6.13;2.72;;;28.70;93.00;;;;;;5040619;28;20034;-69
2022/09/15 10:36:16;;;;;;;5.07;2.03;;;28.80;92.30;;;;;;5046613;28;20025;-68
2022/09/15 10:38:48;;;;;;;6.55;2.65;;;29.00;94.00;;;;;;5045245;28;20021;-69
2022/09/15 10:41:14;;;;;;;;;;;29.10;93.10;;;;;;5051901;28;20017;-67
2022/09/15 10:43:53;;;;;;;9.82;3.25;;;29.10;92.80;;;;;;5041344;28;20298;-68
2022/09/15 10:46:37;;;;;;;5.10;2.47;;;29.20;92.50;;;;;;5036036;28;20036;-68
2022/09/15 10:49:40;;;;;;;12.68;3.05;;;29.10;93.00;;;;;;5034479;28;20025;-67
2022/09/15 10:52:47;;;;;;;9.65;2.65;;;29.20;92.20;;;;;;5046909;28;20030;-68
2022/09/15 10:55:19;;;;;;;7.03;2.92;;;29.70;93.20;;;;;;5030983;28;20127;-66
2022/09/15 10:58:03;;;;;;;4.90;2.13;;;29.60;98.00;;;;;;5031276;28;20167;-68
2022/09/15 11:01:06;;;;;;;8.65;2.95;;;29.40;93.90;;;;;;5031862;28;20033;-67
2022/09/15 11:03:39;;;;;;;5.40;3.35;;;29.30;95.10;;;;;;4972698;28;20101;-68
2022/09/15 11:06:24;;;;;;;9.15;3.00;;;29.20;93.40;;;;;;4973212;28;20038;-68
2022/09/15 11:09:18;;;;;;;6.40;3.30;;;29.20;94.30;;;;;;4961337;28;20279;-67
2022/09/15 11:11:59;;;;;;;4.38;2.17;;;29.20;93.70;;;;;;4972370;28;20042;-69
2022/09/15 11:14:57;;;;;;;6.45;2.35;;;28.90;93.30;;;;;;4970700;28;20035;-66
2022/09/15 11:17:43;;;;;;;9.80;2.92;;;28.70;93.80;;;;;;4972032;28;20043;-67
2022/09/15 11:20:51;;;;;;;11.60;2.45;;;28.60;93.90;;;;;;4972166;28;20491;-68
2022/09/15 11:23:27;;;;;;;6.15;3.00;;;28.50;94.30;;;;;;4972334;28;20043;-67
2022/09/15 11:25:59;;;;;;;5.97;2.53;;;28.60;95.20;;;;;;4972622;28;20873;-68
2022/09/15 11:28:34;;;;;;;8.57;2.75;;;28.60;96.20;;;;;;4972507;28;20089;-68
2022/09/15 11:31:35;;;;;;;6.18;2.58;;;28.60;97.10;;;;;;4972475;28;20035;-67
2022/09/15 11:34:13;;;;;;;6.90;2.92;;;28.70;98.20;;;;;;4914185;29;20495;-68
2022/09/15 11:36:59;;;;;;;6.53;2.63;;;28.70;97.90;;;;;;4902355;29;20044;-68
2022/09/15 11:39:40;;;;;;;5.80;2.42;;;28.80;97.80;;;;;;4925414;28;20039;-69
2022/09/15 11:42:12;;;;;;;;;;;28.70;97.40;;;;;;4992151;28;20125;-68
2022/09/15 11:44:41;;;;;;;5.53;2.80;;;28.80;96.90;;;;;;4992935;28;19909;-67
2022/09/15 11:47:19;;;;;;;6.43;2.35;;;28.90;97.60;;;;;;4989983;28;20412;-68
2022/09/15 11:50:08;;;;;;;5.05;2.80;;;28.90;97.60;;;;;;4991386;28;20035;-68
2022/09/15 11:52:45;;;;;;;6.68;2.63;;;28.90;96.90;;;;;;4991613;28;20037;-68
2022/09/15 11:55:17;;;;;;;8.13;2.80;;;29.00;97.30;;;;;;4990123;28;20030;-68
2022/09/15 11:57:50;;;;;;;4.20;2.42;;;29.10;97.30;;;;;;4988028;28;20138;-68
2022/09/15 12:00:16;;;;;;;6.10;2.83;;;29.10;96.50;;;;;;4986857;28;20041;-68
2022/09/15 12:02:51;;;;;;;5.78;2.45;;;29.20;96.90;;;;;;4989820;28;20447;-67
2022/09/15 12:05:25;;;;;;;7.75;2.30;;;29.40;97.80;;;;;;4989800;28;20049;-67
2022/09/15 12:08:15;;;;;;;8.13;2.53;;;29.40;92.80;;;;;;5010663;28;20037;-67
2022/09/15 12:10:54;;;;;;;6.03;2.33;;;29.40;91.70;;;;;;5035381;28;20063;-68
2022/09/15 12:13:23;;;;;;;4.57;2.45;;;29.60;92.80;;;;;;5029156;28;20033;-67
2022/09/15 12:15:50;;;;;;;5.97;2.72;;;29.50;92.20;;;;;;5034400;28;20022;-69
2022/09/15 12:18:50;;;;;;;5.20;2.40;;;29.40;91.30;;;;;;5042943;28;20025;-69
2022/09/15 12:21:34;;;;;;;3.95;1.98;;;29.30;91.90;;;;;;5033049;28;20655;-69
2022/09/15 12:24:12;;;;;;;3.45;1.83;;;29.10;92.40;;;;;;5046350;28;20123;-67
2022/09/15 12:26:39;;;;;;;6.90;2.55;;;29.20;92.80;;;;;;5040501;28;20048;-69
2022/09/15 12:29:25;;;;;;;6.22;2.33;;;29.20;91.50;;;;;;5043274;28;20116;-69
2022/09/15 12:32:21;;;;;;;6.55;2.15;;;29.20;91.60;;;;;;5036983;28;20450;-69
2022/09/15 12:35:16;;;;;;;3.40;1.83;;;29.20;91.30;;;;;;5046286;28;20021;-69
2022/09/15 12:37:45;;;;;;;4.93;1.98;;;29.20;91.30;;;;;;5042273;28;20025;-69
2022/09/15 12:40:32;;;;;;;8.48;2.80;;;29.10;90.80;;;;;;5044107;28;20029;-69
2022/09/15 12:43:15;;;;;;;5.20;1.92;;;28.90;91.80;;;;;;5043451;28;20060;-69
2022/09/15 12:45:51;;;;;;;3.28;1.70;;;28.90;92.10;;;;;;5048886;28;20071;-68
2022/09/15 12:48:25;;;;;;;3.63;2.20;;;28.90;91.70;;;;;;5046586;28;20454;-67
2022/09/15 12:50:54;;;;;;;3.28;1.40;;;29.00;92.00;;;;;;5034199;28;20080;-68
2022/09/15 12:53:21;;;;;;;8.27;2.42;;;29.10;92.70;;;;;;5030734;28;20033;-68
2022/09/15 12:55:51;;;;;;;7.97;2.40;;;29.10;91.60;;;;;;5041016;28;20056;-68
2022/09/15 12:58:23;;;;;;;8.57;2.40;;;29.20;91.20;;;;;;5050136;28;20037;-69
2022/09/15 13:00:49;;;;;;;7.38;2.65;;;29.30;92.00;;;;;;5047085;28;20214;-68
2022/09/15 13:03:32;;;;;;;7.53;2.78;;;29.40;92.50;;;;;;5034584;28;20559;-69
2022/09/15 13:06:12;;;;;;;5.03;2.30;;;29.50;93.20;;;;;;5048705;28;20025;-64
2022/09/15 13:08:51;;;;;;;5.37;2.33;;;29.50;92.60;;;;;;5044364;28;20083;-66
2022/09/15 13:11:22;;;;;;;5.82;2.42;;;29.70;93.80;;;;;;5053718;28;20071;-64